Time;durP1;ratioP1;P1;durP2;ratioP2;P2;SDS_P1;SDS_P2;PMS_P1;PMS_P2;Temp;Humidity;BMP_temperature;BMP_pressure;BME280_temperature;BME280_humidity;BME280_pressure;Samples;Min_cycle;Max_cycle;Signal;HPM_P1;HPM_P2
2022/04/15 00:00:34;;;;;;;10.73;4.70;;;;;;;10.20;47.44;101844.22;2570220;23;20193;-61
2022/04/15 00:01:34;;;;;;;8.15;4.18;;;;;;;9.49;47.21;101737.56;2569922;23;20151;-61
2022/04/15 00:02:36;;;;;;;8.37;4.13;;;;;;;10.25;47.31;101849.38;2556842;23;20621;-62
2022/04/15 00:03:37;;;;;;;7.25;3.25;;;;;;;10.25;47.48;101846.59;2557252;23;20147;-62
2022/04/15 00:04:37;;;;;;;7.57;3.60;;;;;;;10.27;47.15;101860.84;2570095;23;20153;-61
2022/04/15 00:05:41;;;;;;;6.43;2.97;;;;;;;9.88;47.09;101793.66;2556900;23;20151;-62
2022/04/15 00:06:42;;;;;;;6.00;3.42;;;;;;;10.26;47.00;101850.16;2557571;23;20146;-62
2022/04/15 00:07:42;;;;;;;5.40;3.40;;;;;;;10.26;47.08;101850.94;2569955;23;20181;-61
2022/04/15 00:08:43;;;;;;;6.13;3.57;;;;;;;10.13;47.16;101832.38;2570210;23;20177;-62
2022/04/15 00:09:44;;;;;;;5.33;3.47;;;;;;;10.29;47.00;101846.56;2570159;23;20180;-61
2022/04/15 00:10:45;;;;;;;10.40;4.13;;;;;;;10.25;47.10;101838.28;2570141;23;20424;-61
2022/04/15 00:11:46;;;;;;;9.57;4.00;;;;;;;10.32;46.86;101854.91;2570114;23;20138;-61
2022/04/15 00:12:47;;;;;;;9.93;4.17;;;;;;;10.34;47.34;101851.69;2569842;23;20160;-61
2022/04/15 00:13:48;;;;;;;11.18;4.07;;;;;;;10.32;47.19;101859.63;2570161;23;20500;-61
2022/04/15 00:14:48;;;;;;;8.68;3.80;;;;;;;10.29;46.91;101846.56;2570166;23;20145;-61
2022/04/15 00:15:49;;;;;;;6.23;3.73;;;;;;;10.31;46.96;101853.28;2570157;23;20607;-61
2022/04/15 00:16:50;;;;;;;8.13;4.27;;;;;;;9.66;47.16;101747.03;2570065;23;20592;-61
2022/04/15 00:17:51;;;;;;;9.27;3.97;;;;;;;10.28;47.28;101853.31;2570159;23;20156;-61
2022/04/15 00:18:52;;;;;;;7.27;3.30;;;;;;;9.83;47.31;101782.19;2556895;23;20145;-61
2022/04/15 00:19:52;;;;;;;8.50;4.87;;;;;;;9.80;46.79;101777.47;2556872;23;20384;-61
2022/04/15 00:20:53;;;;;;;8.67;3.87;;;;;;;10.24;46.38;101847.78;2570224;23;20155;-61
2022/04/15 00:21:54;;;;;;;10.43;4.40;;;;;;;9.80;46.56;101780.22;2570234;23;20596;-62
2022/04/15 00:22:58;;;;;;;8.75;3.92;;;;;;;10.21;46.66;101845.84;2569820;23;20601;-61
2022/04/15 00:23:58;;;;;;;9.00;3.95;;;;;;;10.20;46.92;101841.47;2570138;23;20641;-61
2022/04/15 00:24:59;;;;;;;6.73;3.90;;;;;;;10.19;47.11;101848.19;2570166;23;20547;-61
2022/04/15 00:25:59;;;;;;;9.60;4.40;;;;;;;10.16;47.44;101851.78;2570097;23;20173;-62
2022/04/15 00:27:00;;;;;;;9.43;4.10;;;;;;;10.14;47.37;101875.53;2556641;23;20162;-61
2022/04/15 00:28:01;;;;;;;10.33;4.40;;;;;;;10.02;47.02;101835.16;2556894;23;20604;-61
2022/04/15 00:29:05;;;;;;;10.77;4.60;;;;;;;10.12;47.61;101847.44;2569235;23;20159;-62
2022/04/15 00:30:08;;;;;;;11.18;4.03;;;;;;;10.10;47.15;101847.03;2569403;23;20390;-61
2022/04/15 00:31:08;;;;;;;9.38;3.95;;;;;;;10.08;47.51;101849.41;2570091;23;20147;-61
2022/04/15 00:32:09;;;;;;;8.87;4.27;;;;;;;10.07;47.44;101848.63;2570754;23;20165;-61
2022/04/15 00:33:10;;;;;;;7.17;3.60;;;;;;;9.56;47.37;101773.56;2570738;23;20148;-61
2022/04/15 00:34:11;;;;;;;8.43;3.55;;;;;;;10.03;47.74;101852.56;2570933;23;20144;-61
2022/04/15 00:35:11;;;;;;;7.27;3.50;;;;;;;10.01;47.53;101852.16;2570776;23;20150;-61
2022/04/15 00:36:12;;;;;;;8.17;3.50;;;;;;;9.97;48.33;101854.16;2570967;23;20156;-61
2022/04/15 00:37:12;;;;;;;8.77;3.80;;;;;;;9.94;47.61;101855.75;2570820;23;20549;-61
2022/04/15 00:38:13;;;;;;;7.40;4.30;;;;;;;9.92;47.63;101858.13;2557639;23;20171;-61
2022/04/15 00:39:13;;;;;;;8.07;3.93;;;;;;;9.83;47.70;101854.16;2557262;23;20224;-61
2022/04/15 00:40:14;;;;;;;6.67;3.70;;;;;;;9.86;48.14;101858.91;2571035;23;20205;-61
2022/04/15 00:41:15;;;;;;;5.70;3.83;;;;;;;9.84;48.10;101858.53;2571028;23;20151;-61
2022/04/15 00:42:16;;;;;;;7.73;3.70;;;;;;;9.21;47.93;101764.47;2570646;23;20159;-61
2022/04/15 00:43:16;;;;;;;10.40;3.90;;;;;;;9.77;47.76;101856.56;2570818;23;20381;-62
2022/04/15 00:44:17;;;;;;;10.40;4.00;;;;;;;9.73;47.85;101861.31;2570877;23;20196;-61
2022/04/15 00:45:18;;;;;;;5.53;3.40;;;;;;;9.07;48.25;101770.81;2570531;23;20161;-61
2022/04/15 00:46:18;;;;;;;6.93;4.10;;;;;;;9.64;48.53;101860.13;2570820;23;20173;-62
2022/04/15 00:47:27;;;;;;;10.87;4.37;;;;;;;9.64;48.12;101860.91;2570439;23;20632;-61
2022/04/15 00:48:27;;;;;;;6.00;3.77;;;;;;;9.23;48.64;101793.31;2570639;23;20137;-61
2022/04/15 00:49:28;;;;;;;7.60;3.60;;;;;;;9.63;48.18;101853.81;2570787;23;20406;-61
2022/04/15 00:50:31;;;;;;;10.20;4.43;;;;;;;9.62;48.46;101857.75;2570710;23;20148;-61
2022/04/15 00:51:35;;;;;;;9.30;3.70;;;;;;;9.27;48.40;101802.41;2570846;23;20147;-61
2022/04/15 00:52:39;;;;;;;7.83;4.33;;;;;;;9.59;48.43;101852.22;2570571;23;20869;-62
2022/04/15 00:53:42;;;;;;;8.60;4.25;;;;;;;9.57;48.58;101851.81;2570762;23;20371;-61
2022/04/15 00:54:44;;;;;;;8.23;4.40;;;;;;;9.58;48.63;101851.44;2570710;23;20148;-61
2022/04/15 00:55:48;;;;;;;7.20;4.10;;;;;;;9.56;48.60;101853.81;2570636;23;20376;-62
2022/04/15 00:56:52;;;;;;;9.23;4.20;;;;;;;9.09;48.88;101782.28;2570828;23;20765;-62
2022/04/15 00:57:56;;;;;;;9.07;4.00;;;;;;;9.56;48.69;101856.59;2570633;23;20379;-61
2022/04/15 00:59:00;;;;;;;9.00;4.13;;;;;;;9.50;49.19;101841.56;2557543;23;20211;-61
2022/04/15 01:00:01;;;;;;;8.87;4.07;;;;;;;9.57;48.98;101858.16;2545629;23;20432;-61
2022/04/15 01:01:02;;;;;;;8.17;4.20;;;;;;;9.09;49.44;101779.50;2557884;23;20372;-61
2022/04/15 01:02:03;;;;;;;14.77;4.83;;;;;;;9.57;49.41;101849.06;2570757;23;20438;-61
2022/04/15 01:03:06;;;;;;;13.27;4.60;;;;;;;9.57;49.28;101849.84;2570597;23;20181;-61
2022/04/15 01:04:07;;;;;;;12.40;4.95;;;;;;;9.56;48.99;101845.50;2570802;23;20717;-62
2022/04/15 01:05:09;;;;;;;8.40;4.15;;;;;;;9.54;48.22;101847.88;2570583;23;20155;-61
2022/04/15 01:06:11;;;;;;;6.50;3.67;;;;;;;9.51;47.83;101836.81;2570697;23;20153;-61
2022/04/15 01:07:16;;;;;;;8.37;4.07;;;;;;;9.48;47.58;101837.59;2557304;23;20866;-61
2022/04/15 01:08:21;;;;;;;9.82;4.25;;;;;;;9.42;48.10;101855.78;2558482;23;20419;-61
2022/04/15 01:09:22;;;;;;;10.98;4.50;;;;;;;9.36;49.10;101841.56;2570814;23;20154;-61
2022/04/15 01:10:25;;;;;;;10.20;4.13;;;;;;;9.27;49.46;101834.84;2570519;23;20158;-61
2022/04/15 01:11:28;;;;;;;7.43;4.35;;;;;;;8.37;49.56;101711.88;2570629;23;20683;-61
2022/04/15 01:12:30;;;;;;;7.07;4.30;;;;;;;9.00;49.50;101817.81;2570709;23;20162;-61
2022/04/15 01:13:34;;;;;;;9.75;4.53;;;;;;;8.82;49.68;101797.63;2570590;23;20155;-61
2022/04/15 01:14:35;;;;;;;8.60;4.40;;;;;;;8.54;49.95;101766.38;2570590;23;20152;-62
2022/04/15 01:15:36;;;;;;;6.60;4.25;;;;;;;8.99;49.82;101843.88;2570416;23;20144;-61
2022/04/15 01:16:37;;;;;;;9.30;4.93;;;;;;;8.41;49.80;101757.66;2570821;23;20157;-62
2022/04/15 01:17:38;;;;;;;7.73;4.60;;;;;;;8.95;49.72;101832.03;2570500;23;20196;-61
2022/04/15 01:18:39;;;;;;;8.37;4.70;;;;;;;8.82;49.22;101818.97;2570602;23;20148;-62
2022/04/15 01:19:40;;;;;;;6.35;4.63;;;;;;;8.45;49.33;101772.28;2570850;23;20202;-61
2022/04/15 01:20:42;;;;;;;5.78;4.55;;;;;;;8.93;49.35;101834.41;2570590;23;20148;-61
2022/04/15 01:21:45;;;;;;;7.47;5.18;;;;;;;8.88;49.29;101839.50;2570658;23;20155;-61
2022/04/15 01:22:50;;;;;;;7.32;5.03;;;;;;;8.86;49.36;101839.91;2570701;23;20152;-61
2022/04/15 01:23:50;;;;;;;11.90;5.57;;;;;;;8.84;49.41;101842.28;2570189;23;20184;-62
2022/04/15 01:24:51;;;;;;;20.10;6.50;;;;;;;8.85;49.09;101840.28;2570784;23;20176;-62
2022/04/15 01:25:51;;;;;;;16.60;6.30;;;;;;;8.84;49.17;101847.00;2570460;23;20148;-61
2022/04/15 01:26:52;;;;;;;13.57;5.97;;;;;;;8.84;48.95;101838.72;2570405;23;20644;-61
2022/04/15 01:27:52;;;;;;;12.60;6.70;;;;;;;8.79;48.73;101847.38;2570554;23;20604;-61
2022/04/15 01:28:53;;;;;;;12.70;6.17;;;;;;;8.76;47.92;101848.19;2570676;23;20178;-61
2022/04/15 01:29:54;;;;;;;13.03;5.77;;;;;;;8.55;47.97;101825.97;2570463;23;20152;-61
2022/04/15 01:30:55;;;;;;;9.33;6.07;;;;;;;8.67;47.63;101851.28;2570617;23;20183;-61
2022/04/15 01:31:55;;;;;;;10.73;5.50;;;;;;;8.55;47.42;101837.81;2570760;23;20151;-61
2022/04/15 01:32:56;;;;;;;8.70;5.60;;;;;;;8.56;47.73;101846.91;2557334;23;20216;-61
2022/04/15 01:33:57;;;;;;;10.23;5.53;;;;;;;7.70;48.24;101721.84;2557534;23;20180;-61
2022/04/15 01:34:57;;;;;;;9.70;5.80;;;;;;;8.52;48.43;101840.59;2570637;23;20442;-61
2022/04/15 01:35:58;;;;;;;9.27;5.70;;;;;;;8.48;48.61;101840.56;2570334;23;20480;-61
2022/04/15 01:37:00;;;;;;;7.67;4.83;;;;;;;7.89;48.60;101779.53;2570442;23;20152;-61
2022/04/15 01:38:04;;;;;;;7.13;5.47;;;;;;;8.42;49.24;101846.84;2570441;23;20484;-61
2022/04/15 01:39:05;;;;;;;9.52;5.38;;;;;;;8.42;48.90;101849.63;2570290;23;20599;-61
2022/04/15 01:40:08;;;;;;;13.15;5.53;;;;;;;8.42;49.03;101844.91;2557279;23;20160;-61
2022/04/15 01:41:08;;;;;;;18.27;6.72;;;;;;;8.42;49.62;101838.56;2557542;23;20228;-62
2022/04/15 01:42:13;;;;;;;10.97;5.50;;;;;;;8.40;49.64;101844.47;2570586;23;20205;-61
2022/04/15 01:43:14;;;;;;;14.25;5.97;;;;;;;8.38;49.42;101846.03;2570291;23;20155;-62
2022/04/15 01:44:15;;;;;;;12.33;5.50;;;;;;;8.36;48.95;101842.88;2570099;23;20188;-61
2022/04/15 01:45:16;;;;;;;9.30;4.65;;;;;;;8.32;48.52;101845.63;2570189;23;20634;-62
2022/04/15 01:46:16;;;;;;;9.53;4.87;;;;;;;8.30;48.54;101841.69;2570675;23;20496;-62
2022/04/15 01:47:17;;;;;;;14.67;5.23;;;;;;;8.25;49.22;101837.31;2570108;23;20209;-61
2022/04/15 01:48:18;;;;;;;8.90;5.20;;;;;;;7.60;49.85;101747.41;2570548;23;20523;-61
2022/04/15 01:49:18;;;;;;;10.43;5.47;;;;;;;8.21;50.08;101847.53;2570363;23;20383;-62
2022/04/15 01:50:20;;;;;;;13.90;7.05;;;;;;;8.23;50.25;101841.63;2570212;23;20216;-62
2022/04/15 01:51:21;;;;;;;14.07;6.03;;;;;;;8.23;50.31;101847.16;2570628;23;20802;-61
2022/04/15 01:52:21;;;;;;;14.43;6.37;;;;;;;8.21;50.70;101841.25;2570364;23;20238;-61
2022/04/15 01:53:22;;;;;;;9.80;5.50;;;;;;;8.21;50.75;101841.25;2570626;23;20161;-61
2022/04/15 01:54:23;;;;;;;9.20;5.37;;;;;;;8.11;50.47;101834.44;2570512;23;20543;-61
2022/04/15 01:55:23;;;;;;;12.40;5.87;;;;;;;8.19;50.05;101843.53;2570371;23;20158;-61
2022/04/15 01:56:24;;;;;;;9.67;5.50;;;;;;;8.17;50.52;101843.16;2570419;23;20178;-61
2022/04/15 01:57:25;;;;;;;7.17;5.13;;;;;;;8.16;50.57;101842.34;2570055;23;20603;-61
2022/04/15 01:58:25;;;;;;;9.70;5.83;;;;;;;8.17;49.74;101838.44;2570472;23;20587;-61
2022/04/15 01:59:26;;;;;;;7.93;4.80;;;;;;;8.05;50.06;101829.69;2570427;23;20227;-61
2022/04/15 02:00:26;;;;;;;12.20;5.20;;;;;;;8.15;49.80;101846.28;2570402;23;20209;-61
2022/04/15 02:01:27;;;;;;;9.07;5.20;;;;;;;7.57;50.37;101773.00;2570672;23;20576;-61
2022/04/15 02:02:27;;;;;;;8.93;5.57;;;;;;;8.11;51.92;101842.72;2570250;23;20166;-61
2022/04/15 02:03:28;;;;;;;9.00;5.33;;;;;;;8.14;52.47;101843.91;2570452;23;20235;-61
2022/04/15 02:04:29;;;;;;;8.40;4.67;;;;;;;8.04;52.32;101834.41;2570271;23;20156;-61
2022/04/15 02:05:29;;;;;;;8.23;4.93;;;;;;;8.11;52.56;101844.69;2570447;23;20514;-61
2022/04/15 02:06:30;;;;;;;7.53;4.63;;;;;;;8.07;52.81;101838.34;2570474;23;20176;-61
2022/04/15 02:07:30;;;;;;;7.47;4.97;;;;;;;7.99;52.46;101837.53;2570358;23;20186;-61
2022/04/15 02:08:31;;;;;;;10.30;5.20;;;;;;;8.02;52.00;101841.50;2570516;23;20291;-61
2022/04/15 02:09:31;;;;;;;10.67;5.53;;;;;;;7.53;52.23;101758.41;2570317;23;20152;-61
2022/04/15 02:10:32;;;;;;;14.40;6.57;;;;;;;8.04;51.61;101837.16;2570506;23;20584;-61
2022/04/15 02:11:34;;;;;;;11.57;6.20;;;;;;;7.98;52.31;101835.94;2570401;23;20670;-61
2022/04/15 02:12:35;;;;;;;9.40;5.75;;;;;;;7.99;52.25;101837.53;2570226;23;20239;-61
2022/04/15 02:13:35;;;;;;;10.53;6.33;;;;;;;7.68;52.48;101782.94;2570538;23;20206;-61
2022/04/15 02:14:36;;;;;;;12.83;6.47;;;;;;;8.04;52.96;101842.69;2570346;23;20599;-61
2022/04/15 02:15:36;;;;;;;10.53;5.93;;;;;;;8.00;53.17;101830.81;2570034;23;20148;-61
2022/04/15 02:16:37;;;;;;;9.50;5.77;;;;;;;8.05;53.00;101832.44;2570376;23;20511;-61
2022/04/15 02:17:37;;;;;;;8.00;5.00;;;;;;;8.06;53.14;101828.50;2570076;23;20159;-61
2022/04/15 02:18:38;;;;;;;12.00;6.10;;;;;;;7.88;53.16;101794.47;2570386;23;20151;-61
2022/04/15 02:19:38;;;;;;;11.67;6.03;;;;;;;7.62;53.19;101758.84;2570104;23;20148;-61
2022/04/15 02:20:40;;;;;;;10.97;5.40;;;;;;;8.08;52.63;101832.47;2570416;23;20160;-61
2022/04/15 02:21:40;;;;;;;10.50;5.78;;;;;;;8.08;52.25;101826.13;2570384;23;20217;-61
2022/04/15 02:22:41;;;;;;;11.80;6.33;;;;;;;8.09;52.33;101831.28;2570413;23;20207;-61
2022/04/15 02:23:42;;;;;;;11.03;6.20;;;;;;;8.10;52.46;101829.31;2570372;23;20147;-62
2022/04/15 02:24:42;;;;;;;14.10;6.63;;;;;;;7.70;52.10;101757.72;2570254;23;20156;-61
2022/04/15 02:25:43;;;;;;;10.63;5.50;;;;;;;8.14;51.85;101824.59;2570324;23;20151;-61
2022/04/15 02:26:43;;;;;;;10.73;5.30;;;;;;;8.17;52.28;101829.34;2570000;23;20145;-61
2022/04/15 02:27:44;;;;;;;6.90;4.23;;;;;;;8.16;52.57;101823.00;2570127;23;20159;-61
2022/04/15 02:28:44;;;;;;;5.50;4.10;;;;;;;8.13;52.87;101825.75;2570342;23;20152;-61
2022/04/15 02:29:45;;;;;;;6.97;4.20;;;;;;;8.13;52.34;101832.09;2570254;23;20209;-62
2022/04/15 02:30:48;;;;;;;6.63;3.83;;;;;;;8.14;52.49;101827.34;2570295;23;20614;-62
2022/04/15 02:31:49;;;;;;;7.32;4.80;;;;;;;8.12;52.41;101826.94;2570261;23;20149;-61
2022/04/15 02:32:49;;;;;;;9.70;5.73;;;;;;;8.10;52.60;101815.50;2570153;23;20155;-61
2022/04/15 02:33:50;;;;;;;13.07;6.63;;;;;;;8.19;51.91;101829.75;2570271;23;20156;-61
2022/04/15 02:34:51;;;;;;;11.67;6.00;;;;;;;8.22;51.83;101826.25;2570175;23;20160;-61
2022/04/15 02:35:51;;;;;;;13.67;6.80;;;;;;;8.23;52.09;101831.38;2569911;23;20186;-62
2022/04/15 02:36:52;;;;;;;15.17;6.70;;;;;;;8.21;51.99;101832.94;2570288;23;20226;-61
2022/04/15 02:37:52;;;;;;;14.70;6.33;;;;;;;8.22;51.54;101826.25;2570219;23;20161;-61
2022/04/15 02:38:53;;;;;;;18.43;6.87;;;;;;;8.25;51.94;101828.25;2570311;23;20148;-61
2022/04/15 02:39:55;;;;;;;14.63;6.70;;;;;;;8.25;52.19;101831.78;2570177;23;20149;-61
2022/04/15 02:40:56;;;;;;;18.55;6.68;;;;;;;8.27;51.65;101828.63;2570129;23;20155;-61
2022/04/15 02:41:56;;;;;;;15.53;6.27;;;;;;;8.26;51.95;101832.59;2570184;23;20155;-61
2022/04/15 02:42:57;;;;;;;13.77;6.13;;;;;;;8.10;51.75;101807.22;2570209;23;20375;-61
2022/04/15 02:43:58;;;;;;;14.37;6.40;;;;;;;7.79;52.22;101747.13;2570269;23;20586;-61
2022/04/15 02:44:58;;;;;;;14.93;6.27;;;;;;;8.29;51.50;101829.03;2570036;23;20210;-62
2022/04/15 02:46:00;;;;;;;14.97;5.40;;;;;;;8.12;52.04;101810.38;2569832;23;20198;-62
2022/04/15 02:47:01;;;;;;;13.07;6.60;;;;;;;7.99;51.89;101789.81;2570026;23;20516;-61
2022/04/15 02:48:01;;;;;;;13.33;5.57;;;;;;;8.25;52.20;101820.72;2570264;23;20250;-62
2022/04/15 02:49:03;;;;;;;10.30;5.73;;;;;;;8.34;51.65;101829.47;2570143;23;20172;-62
2022/04/15 02:50:04;;;;;;;13.90;6.05;;;;;;;7.40;51.94;101675.19;2570315;23;20184;-61
2022/04/15 02:51:05;;;;;;;10.60;5.05;;;;;;;8.37;51.54;101827.91;2570300;23;20162;-61
2022/04/15 02:52:05;;;;;;;9.60;5.23;;;;;;;8.33;51.57;101833.41;2570281;23;20183;-61
2022/04/15 02:53:06;;;;;;;11.67;5.83;;;;;;;7.60;51.92;101714.31;2570142;23;20212;-61
2022/04/15 02:54:07;;;;;;;12.37;5.63;;;;;;;8.30;50.40;101820.34;2570271;23;20707;-62
2022/04/15 02:55:08;;;;;;;12.23;5.60;;;;;;;8.05;50.48;101782.75;2569894;23;20155;-62
2022/04/15 02:56:08;;;;;;;13.87;5.27;;;;;;;8.17;50.26;101815.53;2570178;23;20153;-61
2022/04/15 02:57:09;;;;;;;13.60;5.27;;;;;;;8.18;50.05;101822.63;2570221;23;20159;-61
2022/04/15 02:58:09;;;;;;;18.90;5.30;;;;;;;8.17;50.17;101821.88;2570078;23;20152;-61
2022/04/15 02:59:10;;;;;;;16.43;5.73;;;;;;;8.13;50.39;101818.28;2569965;23;20149;-61
2022/04/15 03:00:12;;;;;;;11.30;5.47;;;;;;;8.06;50.58;101811.94;2570219;23;20624;-61
2022/04/15 03:01:12;;;;;;;12.80;5.95;;;;;;;8.12;51.21;101825.00;2570293;23;20163;-61
2022/04/15 03:02:15;;;;;;;10.93;5.87;;;;;;;8.00;51.31;101811.50;2570014;23;20150;-62
2022/04/15 03:03:15;;;;;;;13.18;7.20;;;;;;;7.76;50.92;101773.53;2570138;23;20155;-61
2022/04/15 03:04:16;;;;;;;13.77;7.37;;;;;;;8.11;50.73;101826.16;2570244;23;20176;-61
2022/04/15 03:05:16;;;;;;;12.13;7.43;;;;;;;8.02;50.94;101811.13;2570184;23;20251;-61
2022/04/15 03:06:17;;;;;;;15.97;8.97;;;;;;;8.06;50.93;101822.97;2569898;23;20159;-61
2022/04/15 03:07:17;;;;;;;16.33;8.40;;;;;;;8.00;51.34;101827.28;2569747;23;20557;-61
2022/04/15 03:08:18;;;;;;;15.50;8.53;;;;;;;7.47;50.71;101752.47;2570240;23;20245;-61
2022/04/15 03:09:18;;;;;;;14.87;9.00;;;;;;;7.91;50.83;101826.84;2569891;23;20213;-62
2022/04/15 03:10:19;;;;;;;15.33;8.53;;;;;;;7.86;50.68;101818.91;2570388;23;20229;-61
2022/04/15 03:11:19;;;;;;;23.17;8.83;;;;;;;7.81;51.48;101811.00;2570079;23;20540;-61
2022/04/15 03:12:20;;;;;;;29.47;10.33;;;;;;;7.80;50.98;101826.75;2569993;23;20163;-61
2022/04/15 03:13:21;;;;;;;24.90;8.90;;;;;;;7.77;50.82;101823.97;2570284;23;20179;-61
2022/04/15 03:14:21;;;;;;;21.90;8.43;;;;;;;7.75;51.01;101824.34;2570377;23;20548;-61
2022/04/15 03:15:22;;;;;;;13.07;8.03;;;;;;;7.66;50.89;101809.31;2570091;23;20155;-61
2022/04/15 03:16:22;;;;;;;16.33;8.07;;;;;;;7.70;50.89;101821.19;2569995;23;20657;-61
2022/04/15 03:17:23;;;;;;;17.13;8.20;;;;;;;7.65;51.04;101819.59;2569848;23;20176;-61
2022/04/15 03:18:23;;;;;;;19.43;8.63;;;;;;;7.42;51.07;101788.66;2556966;23;20208;-62
2022/04/15 03:19:24;;;;;;;20.00;9.23;;;;;;;7.59;50.83;101820.31;2556797;23;20160;-61
2022/04/15 03:20:24;;;;;;;13.63;7.27;;;;;;;7.54;50.80;101823.44;2569583;23;20152;-61
2022/04/15 03:21:25;;;;;;;16.50;7.33;;;;;;;7.50;50.18;101825.38;2570062;23;20152;-62
2022/04/15 03:22:25;;;;;;;12.27;7.53;;;;;;;7.14;50.99;101780.19;2570091;23;20186;-62
2022/04/15 03:23:26;;;;;;;16.77;7.47;;;;;;;7.26;51.88;101818.47;2570261;23;20481;-61
2022/04/15 03:24:27;;;;;;;15.90;7.13;;;;;;;7.25;51.58;101825.19;2570303;23;20229;-61
2022/04/15 03:25:27;;;;;;;13.27;7.60;;;;;;;7.18;51.65;101825.09;2569843;23;20621;-62
2022/04/15 03:26:28;;;;;;;13.30;7.70;;;;;;;7.10;52.36;101817.16;2569957;23;20162;-61
2022/04/15 03:27:29;;;;;;;15.68;7.95;;;;;;;7.04;52.17;101822.22;2570013;23;20151;-62
2022/04/15 03:28:29;;;;;;;15.57;7.87;;;;;;;7.06;52.41;101821.81;2570263;23;20504;-61
2022/04/15 03:29:30;;;;;;;13.83;8.20;;;;;;;6.51;52.88;101726.44;2570067;23;20155;-61
2022/04/15 03:30:30;;;;;;;18.00;8.00;;;;;;;7.15;52.72;101822.31;2570142;23;20226;-61
2022/04/15 03:31:31;;;;;;;15.43;7.47;;;;;;;7.18;52.10;101825.09;2570197;23;20151;-61
2022/04/15 03:32:32;;;;;;;19.20;8.73;;;;;;;7.22;52.07;101817.66;2570102;23;20671;-61
2022/04/15 03:33:32;;;;;;;15.43;8.50;;;;;;;7.22;52.85;101825.91;2570229;23;20556;-61
2022/04/15 03:34:33;;;;;;;15.00;7.50;;;;;;;6.90;52.23;101771.69;2570379;23;20148;-61
2022/04/15 03:35:34;;;;;;;25.57;8.77;;;;;;;7.25;52.73;101827.94;2569868;23;20502;-61
2022/04/15 03:36:34;;;;;;;21.17;7.93;;;;;;;7.09;52.18;101799.81;2570033;23;20186;-61
2022/04/15 03:37:35;;;;;;;16.87;7.77;;;;;;;7.20;52.59;101817.25;2569788;23;20542;-62
2022/04/15 03:38:36;;;;;;;16.40;8.60;;;;;;;7.27;52.50;101822.81;2570042;23;20163;-62
2022/04/15 03:39:36;;;;;;;18.87;8.33;;;;;;;7.28;53.26;101829.91;2569941;23;20156;-61
2022/04/15 03:40:37;;;;;;;15.27;8.20;;;;;;;7.26;53.46;101818.47;2570149;23;20150;-61
2022/04/15 03:41:37;;;;;;;16.93;7.97;;;;;;;7.26;52.77;101821.25;2570077;23;20522;-61
2022/04/15 03:42:49;;;;;;;16.47;8.40;;;;;;;7.26;53.75;101823.19;2569956;23;20154;-61
2022/04/15 03:43:50;;;;;;;18.90;8.93;;;;;;;6.44;53.61;101716.16;2570051;23;20139;-62
2022/04/15 03:44:50;;;;;;;27.80;9.85;;;;;;;7.18;53.64;101818.81;2570157;23;20156;-61
2022/04/15 03:45:51;;;;;;;34.00;10.53;;;;;;;7.18;54.13;101827.06;2569917;23;20206;-61
2022/04/15 03:46:51;;;;;;;27.97;9.67;;;;;;;7.21;53.73;101820.78;2556603;23;20159;-61
2022/04/15 03:47:56;;;;;;;28.90;10.03;;;;;;;7.13;53.43;101814.41;2556765;23;20500;-61
2022/04/15 03:48:56;;;;;;;23.63;9.57;;;;;;;7.25;53.88;101824.38;2570171;23;20179;-61
2022/04/15 03:49:57;;;;;;;20.00;9.03;;;;;;;7.26;53.92;101823.19;2569834;23;20613;-61
2022/04/15 03:50:57;;;;;;;35.20;10.07;;;;;;;7.25;54.04;101832.63;2569968;23;20604;-62
2022/04/15 03:51:58;;;;;;;24.20;9.83;;;;;;;7.28;53.80;101834.66;2570120;23;20151;-61
2022/04/15 03:52:58;;;;;;;25.87;9.50;;;;;;;7.25;53.82;101830.69;2569882;23;20150;-61
2022/04/15 03:53:59;;;;;;;14.00;7.40;;;;;;;7.25;53.51;101830.69;2570163;23;20497;-61
2022/04/15 03:54:59;;;;;;;22.60;9.13;;;;;;;7.30;53.62;101829.53;2570074;23;20187;-61
2022/04/15 03:56:00;;;;;;;22.43;8.40;;;;;;;7.29;54.37;101828.72;2569718;23;20535;-62
2022/04/15 03:57:00;;;;;;;18.67;8.07;;;;;;;7.29;54.11;101837.00;2569800;23;20202;-61
2022/04/15 03:58:01;;;;;;;16.93;7.90;;;;;;;7.27;53.43;101822.00;2569864;23;20151;-62
2022/04/15 03:59:01;;;;;;;15.47;8.07;;;;;;;7.33;53.85;101832.31;2569960;23;20156;-62
2022/04/15 04:00:04;;;;;;;13.70;7.10;;;;;;;7.35;54.02;101834.69;2570138;23;20587;-62
2022/04/15 04:01:05;;;;;;;19.17;8.23;;;;;;;7.35;53.81;101829.19;2556905;23;20199;-61
2022/04/15 04:02:05;;;;;;;13.83;8.27;;;;;;;7.33;53.93;101831.53;2556943;23;20622;-61
2022/04/15 04:03:05;;;;;;;17.50;8.37;;;;;;;6.80;53.88;101744.81;2569931;23;20152;-61
2022/04/15 04:04:06;;;;;;;17.50;7.70;;;;;;;7.37;53.67;101833.16;2569997;23;20172;-61
2022/04/15 04:05:08;;;;;;;13.23;8.30;;;;;;;7.40;53.10;101837.91;2570081;23;20185;-61
2022/04/15 04:06:08;;;;;;;10.90;7.07;;;;;;;7.35;53.05;101827.22;2569867;23;20203;-61
2022/04/15 04:07:10;;;;;;;17.00;7.80;;;;;;;7.48;52.96;101839.53;2570301;23;20184;-61
2022/04/15 04:08:11;;;;;;;20.00;8.40;;;;;;;7.52;53.77;101834.03;2570851;23;20179;-61
2022/04/15 04:09:12;;;;;;;21.50;9.17;;;;;;;7.55;54.11;101845.13;2570585;23;20183;-61
2022/04/15 04:10:14;;;;;;;23.13;9.27;;;;;;;6.94;53.50;101751.25;2570955;23;20658;-61
2022/04/15 04:11:22;;;;;;;19.80;9.13;;;;;;;7.57;53.84;101869.53;2570423;23;20148;-61
2022/04/15 04:12:22;;;;;;;16.58;8.40;;;;;;;7.59;53.52;101843.16;2570336;23;20481;-61
2022/04/15 04:13:23;;;;;;;20.27;8.77;;;;;;;7.62;54.26;101841.59;2570525;23;20177;-61
2022/04/15 04:14:24;;;;;;;19.63;9.17;;;;;;;7.64;53.88;101844.78;2570869;23;20501;-61
2022/04/15 04:15:24;;;;;;;17.13;8.10;;;;;;;7.66;53.99;101845.19;2570901;23;20634;-61
2022/04/15 04:16:25;;;;;;;19.90;8.27;;;;;;;7.66;53.69;101845.19;2570912;23;20414;-61
2022/04/15 04:17:25;;;;;;;31.90;9.27;;;;;;;7.66;53.34;101853.47;2570380;23;20256;-61
2022/04/15 04:18:26;;;;;;;20.73;9.07;;;;;;;7.66;54.37;101853.47;2570886;23;20215;-61
2022/04/15 04:19:26;;;;;;;16.47;9.37;;;;;;;7.62;53.78;101853.44;2570777;23;20180;-61
2022/04/15 04:20:27;;;;;;;16.00;7.87;;;;;;;7.02;54.12;101758.41;2570788;23;20179;-61
2022/04/15 04:21:30;;;;;;;31.70;9.52;;;;;;;7.56;54.35;101854.97;2570710;23;20235;-61
2022/04/15 04:22:32;;;;;;;23.30;8.82;;;;;;;7.58;54.39;101860.91;2570680;23;20234;-61
2022/04/15 04:23:34;;;;;;;28.15;9.25;;;;;;;7.63;54.19;101855.03;2570497;23;20144;-61
2022/04/15 04:24:34;;;;;;;24.80;8.90;;;;;;;7.64;54.33;101853.06;2570803;23;20298;-61
2022/04/15 04:25:35;;;;;;;25.40;9.23;;;;;;;7.01;53.78;101750.50;2570383;23;20145;-61
2022/04/15 04:26:35;;;;;;;25.37;9.37;;;;;;;7.67;54.17;101849.53;2570621;23;20472;-61
2022/04/15 04:27:40;;;;;;;20.23;10.30;;;;;;;7.72;53.55;101857.44;2570528;23;20174;-61
2022/04/15 04:28:41;;;;;;;15.63;8.52;;;;;;;7.73;53.78;101859.03;2570797;23;20148;-62
2022/04/15 04:29:41;;;;;;;15.80;8.00;;;;;;;7.76;54.30;101855.50;2570629;23;20279;-61
2022/04/15 04:30:41;;;;;;;16.20;8.43;;;;;;;7.75;53.13;101854.72;2570684;23;20198;-61
2022/04/15 04:31:42;;;;;;;19.27;9.10;;;;;;;7.89;53.60;101857.56;2570517;23;20148;-61
2022/04/15 04:32:50;;;;;;;17.27;9.30;;;;;;;6.93;52.78;101693.78;2570212;23;20151;-61
2022/04/15 04:33:51;;;;;;;16.75;7.97;;;;;;;8.02;52.90;101867.13;2570440;23;20593;-61
2022/04/15 04:34:51;;;;;;;14.00;7.30;;;;;;;8.08;52.60;101862.84;2570503;23;20153;-61
2022/04/15 04:35:52;;;;;;;16.37;8.27;;;;;;;8.15;52.32;101864.84;2570171;23;20149;-62
2022/04/15 04:36:52;;;;;;;23.17;8.93;;;;;;;8.18;52.39;101858.53;2570131;23;20175;-62
2022/04/15 04:37:53;;;;;;;15.67;8.80;;;;;;;8.22;52.29;101860.19;2570300;23;20471;-62
2022/04/15 04:38:53;;;;;;;16.37;9.00;;;;;;;8.24;52.25;101860.59;2556896;23;20650;-61
2022/04/15 04:39:54;;;;;;;16.10;9.60;;;;;;;8.29;52.06;101856.66;2557266;23;20200;-61
2022/04/15 04:40:56;;;;;;;23.10;10.80;;;;;;;8.31;52.14;101855.09;2570427;23;20150;-61
2022/04/15 04:41:57;;;;;;;22.42;13.98;;;;;;;8.31;52.05;101846.03;2557048;23;20239;-61
2022/04/15 04:42:58;;;;;;;17.70;12.63;;;;;;;7.61;51.94;101735.19;2557048;23;20183;-61
2022/04/15 04:43:59;;;;;;;23.05;13.80;;;;;;;8.45;51.95;101857.16;2570218;23;20259;-61
2022/04/15 04:45:00;;;;;;;23.30;13.70;;;;;;;8.50;51.85;101867.81;2569983;23;20148;-61